createdAt,value
2023-03-19T00:02:17.915Z,95063.22
2023-03-19T00:04:45.929Z,95069.56
2023-03-19T00:07:12.910Z,95079.41
2023-03-19T00:09:39.447Z,95070.31
2023-03-19T00:12:06.172Z,95083.38
2023-03-19T00:14:32.998Z,95078.56
2023-03-19T00:16:59.539Z,95079.19
2023-03-19T00:19:26.114Z,95084.59
2023-03-19T00:21:52.615Z,95077.91
2023-03-19T00:24:19.210Z,95078.22
2023-03-19T00:26:45.773Z,95064.22
2023-03-19T00:29:13.101Z,95066.44
2023-03-19T00:31:40.179Z,95068.63
2023-03-19T00:34:06.758Z,95072.47
2023-03-19T00:36:34.616Z,95076.56
2023-03-19T00:39:01.216Z,95079.88
2023-03-19T00:41:27.676Z,95084.81
2023-03-19T00:43:55.926Z,95090.53
2023-03-19T00:46:23.605Z,95091.16
2023-03-19T00:48:50.398Z,95097.16
2023-03-19T00:51:17.071Z,95099.41
2023-03-19T00:53:44.375Z,95105.41
2023-03-19T00:56:13.215Z,95110.66
2023-03-19T00:58:40.373Z,95110.94
2023-03-19T01:01:11.945Z,95109.34
2023-03-19T01:03:38.821Z,95107.06
2023-03-19T01:06:06.222Z,95104.69
2023-03-19T01:08:32.853Z,95104.47
2023-03-19T01:11:14.473Z,95108.13
2023-03-19T01:13:41.470Z,95108.44
2023-03-19T01:16:08.728Z,95118.72
2023-03-19T01:18:35.447Z,95100.41
2023-03-19T01:21:02.328Z,95109.13
2023-03-19T01:23:30.094Z,95115.97
2023-03-19T01:25:57.280Z,95104.97
2023-03-19T01:28:28.643Z,95111.00
2023-03-19T01:30:59.435Z,95108.03
2023-03-19T01:33:49.317Z,95109.16
2023-03-19T01:36:22.192Z,95103.25
2023-03-19T01:38:58.451Z,95104.97
2023-03-19T01:41:25.275Z,95098.78
2023-03-19T01:43:54.716Z,95099.41
2023-03-19T01:46:41.535Z,95100.31
2023-03-19T01:49:29.060Z,95097.09
2023-03-19T01:52:25.533Z,95096.13
2023-03-19T01:55:13.803Z,95092.13
2023-03-19T01:57:59.364Z,95098.13
2023-03-19T02:00:43.760Z,95103.34
2023-03-19T02:03:10.774Z,95104.72
2023-03-19T02:05:53.124Z,95100.22
2023-03-19T02:08:23.670Z,95102.44
2023-03-19T02:10:52.701Z,95103.03
2023-03-19T02:13:19.398Z,95106.34
2023-03-19T02:15:45.946Z,95102.06
2023-03-19T02:18:12.935Z,95104.25
2023-03-19T02:20:49.605Z,95116.75
2023-03-19T02:23:34.425Z,95115.75
2023-03-19T02:26:11.152Z,95119.06
2023-03-19T02:28:42.015Z,95115.88
2023-03-19T02:31:10.786Z,95111.56
2023-03-19T02:33:37.953Z,95099.50
2023-03-19T02:36:09.114Z,95104.06
2023-03-19T02:38:38.831Z,95101.38
2023-03-19T02:41:07.595Z,95100.88
2023-03-19T02:43:37.348Z,95104.66
2023-03-19T02:46:07.309Z,95109.88
2023-03-19T02:48:33.883Z,95120.16
2023-03-19T02:51:00.462Z,95116.16
2023-03-19T02:53:27.026Z,95125.38
2023-03-19T02:55:53.525Z,95114.06
2023-03-19T02:58:20.603Z,95120.56
2023-03-19T03:00:47.318Z,95118.19
2023-03-19T03:03:29.041Z,95120.66
2023-03-19T03:05:58.461Z,95123.66
2023-03-19T03:08:25.067Z,95123.94
2023-03-19T03:10:51.600Z,95126.94
2023-03-19T03:13:18.212Z,95124.25
2023-03-19T03:15:44.700Z,95120.75
2023-03-19T03:18:11.277Z,95128.06
2023-03-19T03:20:37.841Z,95128.84
2023-03-19T03:23:04.541Z,95138.06
2023-03-19T03:25:31.160Z,95140.22
2023-03-19T03:27:57.721Z,95146.75
2023-03-19T03:30:24.181Z,95139.44
2023-03-19T03:32:50.805Z,95142.44
2023-03-19T03:35:17.518Z,95138.94
2023-03-19T03:37:43.966Z,95141.66
2023-03-19T03:40:10.994Z,95138.94
2023-03-19T03:42:37.620Z,95141.34
2023-03-19T03:45:06.561Z,95137.53
2023-03-19T03:47:33.239Z,95133.25
2023-03-19T03:50:00.577Z,95140.22
2023-03-19T03:52:27.985Z,95141.84
2023-03-19T03:54:54.506Z,95143.75
2023-03-19T03:57:21.039Z,95143.44
2023-03-19T03:59:47.953Z,95155.81
2023-03-19T04:02:14.486Z,95150.44
2023-03-19T04:04:41.740Z,95155.81
2023-03-19T04:07:08.361Z,95159.31
2023-03-19T04:09:41.071Z,95162.81
2023-03-19T04:12:08.138Z,95157.91
2023-03-19T04:14:37.771Z,95158.41
2023-03-19T04:17:05.608Z,95152.72
2023-03-19T04:19:32.716Z,95153.03
2023-03-19T04:21:59.588Z,95162.44
2023-03-19T04:24:26.788Z,95157.22
2023-03-19T04:26:53.434Z,95159.63
2023-03-19T04:29:20.131Z,95165.94
2023-03-19T04:31:46.841Z,95167.44
2023-03-19T04:34:13.401Z,95162.44
2023-03-19T04:36:40.242Z,95170.94
2023-03-19T04:39:06.893Z,95170.22
2023-03-19T04:41:33.788Z,95172.53
2023-03-19T04:44:13.069Z,95175.94
2023-03-19T04:46:40.941Z,95176.59
2023-03-19T04:49:08.296Z,95180.00
2023-03-19T04:51:35.116Z,95182.91
2023-03-19T04:54:01.620Z,95175.81
2023-03-19T04:56:28.336Z,95173.78
2023-03-19T04:58:55.649Z,95180.97
2023-03-19T05:01:22.470Z,95179.59
2023-03-19T05:03:58.981Z,95186.03
2023-03-19T05:06:25.999Z,95183.03
2023-03-19T05:08:53.585Z,95198.00
2023-03-19T05:11:23.027Z,95192.81
2023-03-19T05:14:01.863Z,95187.56
2023-03-19T05:16:35.449Z,95194.00
2023-03-19T05:19:02.020Z,95194.97
2023-03-19T05:21:30.187Z,95202.41
2023-03-19T05:23:56.977Z,95205.16
2023-03-19T05:26:25.354Z,95210.75
2023-03-19T05:29:14.523Z,95209.66
2023-03-19T05:31:54.144Z,95217.94
2023-03-19T05:34:21.187Z,95206.84
2023-03-19T05:36:48.634Z,95211.13
2023-03-19T05:39:18.056Z,95215.44
2023-03-19T05:41:44.805Z,95223.75
2023-03-19T05:44:16.237Z,95229.34
2023-03-19T05:47:00.214Z,95238.13
2023-03-19T05:49:30.417Z,95236.91
2023-03-19T05:51:57.241Z,95234.09
2023-03-19T05:54:23.862Z,95240.69
2023-03-19T05:56:57.205Z,95232.13
2023-03-19T05:59:42.853Z,95245.41
2023-03-19T06:02:40.803Z,95246.09
2023-03-19T06:05:27.816Z,95243.44
2023-03-19T06:07:58.682Z,95246.50
2023-03-19T06:10:50.141Z,95246.06
2023-03-19T06:13:16.620Z,95257.25
2023-03-19T06:15:51.782Z,95267.66
2023-03-19T06:18:37.044Z,95276.44
2023-03-19T06:21:08.448Z,95278.69
2023-03-19T06:23:35.284Z,95277.13
2023-03-19T06:26:04.546Z,95280.84
2023-03-19T06:28:35.262Z,95272.25
2023-03-19T06:31:03.455Z,95283.47
2023-03-19T06:33:48.345Z,95285.25
2023-03-19T06:36:15.001Z,95285.88
2023-03-19T06:38:41.526Z,95302.00
2023-03-19T06:41:08.040Z,95301.91
2023-03-19T06:43:34.598Z,95302.56
2023-03-19T06:46:01.121Z,95318.97
2023-03-19T06:48:27.748Z,95317.56
2023-03-19T06:50:54.223Z,95322.69
2023-03-19T06:53:20.852Z,95320.94
2023-03-19T06:55:47.530Z,95316.78
2023-03-19T06:58:14.053Z,95322.69
2023-03-19T07:00:40.568Z,95325.91
2023-03-19T07:03:07.152Z,95333.72
2023-03-19T07:05:33.678Z,95333.91
2023-03-19T07:08:00.242Z,95336.78
2023-03-19T07:10:26.758Z,95342.69
2023-03-19T07:12:53.340Z,95348.28
2023-03-19T07:15:20.049Z,95353.09
2023-03-19T07:17:46.862Z,95357.88
2023-03-19T07:20:13.823Z,95353.72
2023-03-19T07:22:41.081Z,95358.03
2023-03-19T07:25:07.928Z,95360.91
2023-03-19T07:27:34.492Z,95366.50
2023-03-19T07:30:00.970Z,95377.03
2023-03-19T07:32:27.421Z,95390.28
2023-03-19T07:34:53.892Z,95388.56
2023-03-19T07:37:22.446Z,95399.72
2023-03-19T07:39:49.094Z,95405.16
2023-03-19T07:42:15.622Z,95400.50
2023-03-19T07:44:42.377Z,95394.28
2023-03-19T07:47:22.570Z,95403.22
2023-03-19T07:49:54.829Z,95407.06
2023-03-19T07:52:21.394Z,95407.53
2023-03-19T07:54:47.961Z,95402.28
2023-03-19T07:57:14.481Z,95411.25
2023-03-19T07:59:41.304Z,95404.84
2023-03-19T08:02:11.726Z,95402.81
2023-03-19T08:04:38.729Z,95404.56
2023-03-19T08:07:05.489Z,95403.63
2023-03-19T08:09:31.949Z,95412.72
2023-03-19T08:11:58.407Z,95412.59
2023-03-19T08:14:25.128Z,95410.19
2023-03-19T08:16:51.804Z,95408.63
2023-03-19T08:19:18.327Z,95408.47
2023-03-19T08:21:44.782Z,95411.84
2023-03-19T08:24:11.235Z,95414.38
2023-03-19T08:26:37.813Z,95414.72
2023-03-19T08:29:04.328Z,95408.66
2023-03-19T08:31:30.984Z,95401.44
2023-03-19T08:33:57.469Z,95403.53
2023-03-19T08:36:23.922Z,95406.41
2023-03-19T08:38:50.496Z,95413.13
2023-03-19T08:41:16.947Z,95419.53
2023-03-19T08:43:43.463Z,95418.84
2023-03-19T08:46:09.969Z,95426.41
2023-03-19T08:48:36.482Z,95421.94
2023-03-19T08:51:04.083Z,95424.50
2023-03-19T08:53:31.381Z,95436.31
2023-03-19T08:56:00.501Z,95439.97
2023-03-19T08:58:28.393Z,95446.06
2023-03-19T09:01:11.000Z,95446.84
2023-03-19T09:03:39.361Z,95447.66
2023-03-19T09:06:08.322Z,95447.47
2023-03-19T09:08:36.199Z,95451.16
2023-03-19T09:11:03.936Z,95446.66
2023-03-19T09:13:30.925Z,95449.56
2023-03-19T09:15:57.443Z,95447.78
2023-03-19T09:18:24.597Z,95443.94
2023-03-19T09:20:51.891Z,95449.53
2023-03-19T09:23:18.528Z,95447.78
2023-03-19T09:25:45.065Z,95457.81
2023-03-19T09:28:11.720Z,95450.63
2023-03-19T09:30:38.938Z,95455.56
2023-03-19T09:33:06.172Z,95457.78
2023-03-19T09:35:33.432Z,95459.19
2023-03-19T09:38:03.272Z,95459.16
2023-03-19T09:40:42.665Z,95459.78
2023-03-19T09:43:52.144Z,95461.53
2023-03-19T09:46:23.532Z,95456.03
2023-03-19T09:48:49.990Z,95453.16
2023-03-19T09:51:29.466Z,95458.41
2023-03-19T09:54:06.765Z,95457.59
2023-03-19T09:56:33.966Z,95459.00
2023-03-19T09:59:01.190Z,95470.16
2023-03-19T10:01:35.646Z,95474.31
2023-03-19T10:04:17.805Z,95475.38
2023-03-19T10:06:44.431Z,95467.63
2023-03-19T10:09:28.217Z,95459.72
2023-03-19T10:12:03.522Z,95465.25
2023-03-19T10:14:41.781Z,95462.00
2023-03-19T10:17:16.926Z,95458.44
2023-03-19T10:19:51.367Z,95449.72
2023-03-19T10:22:25.764Z,95453.63
2023-03-19T10:24:54.093Z,95445.84
2023-03-19T10:27:22.668Z,95445.84
2023-03-19T10:29:49.314Z,95442.41
2023-03-19T10:32:18.851Z,95446.31
2023-03-19T10:34:46.612Z,95438.81
2023-03-19T10:37:13.144Z,95441.59
2023-03-19T10:39:42.396Z,95439.53
2023-03-19T10:42:08.962Z,95440.22
2023-03-19T10:44:42.267Z,95440.00
2023-03-19T10:47:14.682Z,95442.97
2023-03-19T10:49:42.006Z,95448.97
2023-03-19T10:52:29.238Z,95443.19
2023-03-19T10:55:04.623Z,95431.22
2023-03-19T10:57:31.214Z,95432.25
2023-03-19T11:00:05.456Z,95432.50
2023-03-19T11:02:32.310Z,95433.53
2023-03-19T11:05:21.891Z,95429.19
2023-03-19T11:08:34.933Z,95429.28
2023-03-19T11:11:02.202Z,95428.28
2023-03-19T11:13:28.804Z,95433.06
2023-03-19T11:15:59.572Z,95419.50
2023-03-19T11:18:36.091Z,95419.47
2023-03-19T11:21:22.107Z,95425.28
2023-03-19T11:24:02.421Z,95430.41
2023-03-19T11:26:30.362Z,95426.06
2023-03-19T11:29:03.826Z,95430.66
2023-03-19T11:31:43.373Z,95422.72
2023-03-19T11:34:45.298Z,95421.59
2023-03-19T11:37:18.764Z,95421.69
2023-03-19T11:40:22.419Z,95413.72
2023-03-19T11:43:10.698Z,95416.34
2023-03-19T11:46:21.803Z,95417.13
2023-03-19T11:49:04.665Z,95414.25
2023-03-19T11:51:39.807Z,95406.94
2023-03-19T11:54:33.255Z,95403.50
2023-03-19T11:57:23.125Z,95396.31
2023-03-19T12:00:24.587Z,95396.66
2023-03-19T12:03:06.259Z,95394.25
2023-03-19T12:05:43.397Z,95382.72
2023-03-19T12:08:37.704Z,95377.34
2023-03-19T12:11:23.949Z,95380.97
2023-03-19T12:14:09.048Z,95379.28
2023-03-19T12:17:03.432Z,95372.06
2023-03-19T12:19:58.159Z,95380.91
2023-03-19T12:22:50.696Z,95378.78
2023-03-19T12:25:30.779Z,95376.94
2023-03-19T12:28:08.267Z,95369.88
2023-03-19T12:30:41.996Z,95377.38
2023-03-19T12:33:27.352Z,95369.88
2023-03-19T12:35:56.680Z,95365.22
2023-03-19T12:38:29.245Z,95364.16
2023-03-19T12:41:11.238Z,95357.06
2023-03-19T12:44:05.305Z,95360.88
2023-03-19T12:46:46.114Z,95353.00
2023-03-19T12:49:32.450Z,95347.53
2023-03-19T12:52:15.020Z,95360.94
2023-03-19T12:54:47.070Z,95346.22
2023-03-19T12:57:47.546Z,95348.69
2023-03-19T13:00:44.706Z,95341.22
2023-03-19T13:03:55.547Z,95338.63
2023-03-19T13:06:32.212Z,95333.34
2023-03-19T13:09:02.782Z,95333.06
2023-03-19T13:11:47.275Z,95337.53
2023-03-19T13:14:25.249Z,95332.50
2023-03-19T13:16:58.913Z,95329.97
2023-03-19T13:19:46.539Z,95331.78
2023-03-19T13:22:16.918Z,95329.13
2023-03-19T13:24:46.121Z,95331.06
2023-03-19T13:27:22.609Z,95331.50
2023-03-19T13:30:00.765Z,95329.56
2023-03-19T13:32:36.438Z,95323.28
2023-03-19T13:35:19.187Z,95327.97
2023-03-19T13:37:47.509Z,95322.50
2023-03-19T13:40:40.820Z,95328.75
2023-03-19T13:43:28.540Z,95323.28
2023-03-19T13:46:30.595Z,95322.84
2023-03-19T13:49:09.870Z,95317.44
2023-03-19T13:51:36.442Z,95315.66
2023-03-19T13:54:11.984Z,95313.81
2023-03-19T13:56:58.590Z,95315.84
2023-03-19T13:59:36.552Z,95314.81
2023-03-19T14:02:21.334Z,95311.84
2023-03-19T14:05:08.588Z,95309.06
2023-03-19T14:07:37.165Z,95315.25
2023-03-19T14:10:26.981Z,95308.28
2023-03-19T14:13:09.843Z,95303.50
2023-03-19T14:15:41.611Z,95309.41
2023-03-19T14:18:13.945Z,95304.56
2023-03-19T14:20:51.749Z,95306.38
2023-03-19T14:23:36.230Z,95305.41
2023-03-19T14:26:15.938Z,95304.09
2023-03-19T14:28:57.321Z,95298.91
2023-03-19T14:31:34.217Z,95304.69
2023-03-19T14:34:26.882Z,95295.56
2023-03-19T14:37:21.157Z,95294.63
2023-03-19T14:40:08.136Z,95296.84
2023-03-19T14:42:42.027Z,95287.75
2023-03-19T14:45:25.934Z,95286.53
2023-03-19T14:48:23.030Z,95287.66
2023-03-19T14:51:03.138Z,95283.34
2023-03-19T14:53:44.731Z,95277.78
2023-03-19T14:56:19.308Z,95280.16
2023-03-19T14:58:57.465Z,95285.72
2023-03-19T15:01:25.774Z,95280.69
2023-03-19T15:04:00.739Z,95277.59
2023-03-19T15:06:33.695Z,95273.81
2023-03-19T15:09:00.500Z,95275.91
2023-03-19T15:11:58.275Z,95274.38
2023-03-19T15:14:43.253Z,95275.69
2023-03-19T15:17:24.304Z,95268.34
2023-03-19T15:19:52.900Z,95273.25
2023-03-19T15:22:22.250Z,95269.06
2023-03-19T15:24:49.120Z,95270.81
2023-03-19T15:27:23.730Z,95262.69
2023-03-19T15:29:51.645Z,95267.22
2023-03-19T15:32:51.750Z,95268.50
2023-03-19T15:35:21.505Z,95272.50
2023-03-19T15:37:52.976Z,95264.34
2023-03-19T15:40:21.595Z,95269.16
2023-03-19T15:42:48.293Z,95268.81
2023-03-19T15:45:19.600Z,95273.41
2023-03-19T15:47:57.309Z,95271.69
2023-03-19T15:50:27.896Z,95266.84
2023-03-19T15:52:59.085Z,95274.28
2023-03-19T15:55:25.850Z,95267.16
2023-03-19T15:57:55.698Z,95269.81
2023-03-19T16:00:22.681Z,95270.91
2023-03-19T16:02:52.284Z,95272.84
2023-03-19T16:05:30.543Z,95261.81
2023-03-19T16:08:02.474Z,95263.75
2023-03-19T16:10:28.965Z,95267.66
2023-03-19T16:12:56.388Z,95272.34
2023-03-19T16:15:31.551Z,95273.84
2023-03-19T16:18:21.908Z,95277.00
2023-03-19T16:21:02.933Z,95277.53
2023-03-19T16:23:38.298Z,95283.19
2023-03-19T16:26:33.882Z,95284.38
2023-03-19T16:29:17.660Z,95287.94
2023-03-19T16:31:48.097Z,95286.63
2023-03-19T16:34:24.370Z,95285.69
2023-03-19T16:36:51.115Z,95293.66
2023-03-19T16:39:36.720Z,95291.06
2023-03-19T16:42:09.136Z,95293.81
2023-03-19T16:44:39.979Z,95300.56
2023-03-19T16:47:15.405Z,95302.94
2023-03-19T16:49:41.892Z,95306.22
2023-03-19T16:52:19.503Z,95308.59
2023-03-19T16:54:46.358Z,95314.97
2023-03-19T16:57:15.877Z,95306.47
2023-03-19T16:59:43.482Z,95311.66
2023-03-19T17:02:14.529Z,95313.31
2023-03-19T17:04:41.204Z,95313.47
2023-03-19T17:07:08.488Z,95319.88
2023-03-19T17:09:35.353Z,95317.22
2023-03-19T17:12:03.218Z,95327.16
2023-03-19T17:14:30.790Z,95324.41
2023-03-19T17:16:57.278Z,95331.16
2023-03-19T17:19:35.796Z,95327.34
2023-03-19T17:22:02.566Z,95337.94
2023-03-19T17:24:34.637Z,95340.81
2023-03-19T17:27:02.990Z,95338.53
2023-03-19T17:29:30.139Z,95342.16
2023-03-19T17:31:58.761Z,95343.09
2023-03-19T17:34:27.685Z,95348.66
2023-03-19T17:36:58.197Z,95343.75
2023-03-19T17:39:26.288Z,95353.31
2023-03-19T17:41:53.217Z,95353.09
2023-03-19T17:44:20.178Z,95348.97
2023-03-19T17:46:50.121Z,95349.19
2023-03-19T17:49:23.711Z,95355.50
2023-03-19T17:51:51.054Z,95355.72
2023-03-19T17:54:17.953Z,95355.16
2023-03-19T17:56:44.526Z,95354.56
2023-03-19T17:59:11.518Z,95362.63
2023-03-19T18:01:40.083Z,95355.47
2023-03-19T18:04:07.139Z,95361.47
2023-03-19T18:06:36.350Z,95365.53
2023-03-19T18:09:03.105Z,95365.75
2023-03-19T18:11:29.646Z,95364.34
2023-03-19T18:13:56.172Z,95378.16
2023-03-19T18:16:31.488Z,95375.19
2023-03-19T18:19:00.398Z,95370.75
2023-03-19T18:21:30.573Z,95372.06
2023-03-19T18:23:57.121Z,95376.13
2023-03-19T18:26:24.465Z,95379.38
2023-03-19T18:28:51.064Z,95372.41
2023-03-19T18:31:26.262Z,95374.84
2023-03-19T18:34:05.218Z,95375.38
2023-03-19T18:36:33.014Z,95377.03
2023-03-19T18:38:59.954Z,95373.19
2023-03-19T18:41:28.002Z,95390.06
2023-03-19T18:44:04.359Z,95377.31
2023-03-19T18:46:32.609Z,95387.09
2023-03-19T18:49:01.375Z,95389.22
2023-03-19T18:51:28.363Z,95384.63
2023-03-19T18:53:55.606Z,95391.69
2023-03-19T18:56:31.546Z,95388.66
2023-03-19T18:58:59.190Z,95395.75
2023-03-19T19:01:27.099Z,95391.59
2023-03-19T19:03:54.195Z,95400.59
2023-03-19T19:06:44.078Z,95395.31
2023-03-19T19:09:12.834Z,95395.00
2023-03-19T19:11:41.301Z,95401.44
2023-03-19T19:14:17.341Z,95405.44
2023-03-19T19:16:44.232Z,95405.13
2023-03-19T19:19:18.008Z,95411.53
2023-03-19T19:21:45.061Z,95402.75
2023-03-19T19:24:11.697Z,95405.28
2023-03-19T19:26:38.368Z,95410.44
2023-03-19T19:29:05.489Z,95415.22
2023-03-19T19:31:34.208Z,95411.84
2023-03-19T19:34:00.753Z,95409.31
2023-03-19T19:36:28.467Z,95409.13
2023-03-19T19:38:55.356Z,95417.44
2023-03-19T19:41:26.320Z,95408.66
2023-03-19T19:43:54.109Z,95414.72
2023-03-19T19:46:23.071Z,95415.69
2023-03-19T19:48:50.050Z,95414.69
2023-03-19T19:51:22.948Z,95415.66
2023-03-19T19:53:50.134Z,95421.72
2023-03-19T19:56:22.140Z,95421.56
2023-03-19T19:58:51.399Z,95421.09
2023-03-19T20:01:24.021Z,95428.25
2023-03-19T20:03:51.093Z,95420.41
2023-03-19T20:06:18.429Z,95427.31
2023-03-19T20:08:45.964Z,95427.13
2023-03-19T20:11:24.062Z,95432.06
2023-03-19T20:13:53.027Z,95434.00
2023-03-19T20:16:21.428Z,95429.66
2023-03-19T20:18:48.558Z,95437.00
2023-03-19T20:21:15.283Z,95436.81
2023-03-19T20:23:43.437Z,95433.31
2023-03-19T20:26:20.752Z,95438.75
2023-03-19T20:28:47.802Z,95445.59
2023-03-19T20:31:22.327Z,95451.84
2023-03-19T20:33:48.851Z,95453.94
2023-03-19T20:36:15.410Z,95456.63
2023-03-19T20:38:42.256Z,95459.03
2023-03-19T20:41:19.810Z,95475.00
2023-03-19T20:43:46.808Z,95512.38
2023-03-19T20:46:13.490Z,95498.00
2023-03-19T20:48:40.182Z,95496.84
2023-03-19T20:51:06.788Z,95500.38
2023-03-19T20:53:33.368Z,95508.50
2023-03-19T20:56:00.107Z,95499.06
2023-03-19T20:58:31.023Z,95499.56
2023-03-19T21:00:58.556Z,95501.34
2023-03-19T21:03:28.052Z,95510.78
2023-03-19T21:05:58.976Z,95507.91
2023-03-19T21:08:35.650Z,95514.31
2023-03-19T21:11:02.112Z,95517.34
2023-03-19T21:13:29.445Z,95521.06
2023-03-19T21:15:56.476Z,95522.00
2023-03-19T21:18:23.061Z,95528.44
2023-03-19T21:20:53.297Z,95529.41
2023-03-19T21:23:31.911Z,95531.50
2023-03-19T21:26:04.867Z,95531.66
2023-03-19T21:28:36.664Z,95534.06
2023-03-19T21:31:03.758Z,95536.63
2023-03-19T21:33:34.046Z,95534.69
2023-03-19T21:36:02.043Z,95541.91
2023-03-19T21:38:29.167Z,95534.25
2023-03-19T21:40:59.624Z,95537.44
2023-03-19T21:43:33.236Z,95539.84
2023-03-19T21:46:04.177Z,95544.13
2023-03-19T21:48:38.181Z,95540.31
2023-03-19T21:51:04.815Z,95552.50
2023-03-19T21:53:31.641Z,95550.25
2023-03-19T21:55:59.769Z,95560.34
2023-03-19T21:58:30.788Z,95554.84
2023-03-19T22:00:57.940Z,95557.13
2023-03-19T22:03:24.923Z,95551.88
2023-03-19T22:05:52.624Z,95552.66
2023-03-19T22:08:21.224Z,95552.34
2023-03-19T22:10:52.362Z,95562.44
2023-03-19T22:13:21.920Z,95562.09
2023-03-19T22:15:51.394Z,95562.09
2023-03-19T22:18:17.922Z,95565.31
2023-03-19T22:20:45.386Z,95554.44
2023-03-19T22:23:12.748Z,95559.88
2023-03-19T22:25:42.883Z,95557.16
2023-03-19T22:28:34.038Z,95560.19
2023-03-19T22:31:03.066Z,95567.69
2023-03-19T22:33:29.809Z,95568.50
2023-03-19T22:35:56.456Z,95562.91
2023-03-19T22:38:23.242Z,95562.91
2023-03-19T22:40:54.813Z,95557.47
2023-03-19T22:43:28.478Z,95567.53
2023-03-19T22:45:58.850Z,95562.91
2023-03-19T22:48:25.409Z,95566.72
2023-03-19T22:50:51.927Z,95570.56
2023-03-19T22:53:33.489Z,95570.06
2023-03-19T22:56:01.061Z,95573.59
2023-03-19T22:58:28.192Z,95579.03
2023-03-19T23:00:55.531Z,95578.72
2023-03-19T23:03:27.589Z,95575.81
2023-03-19T23:06:10.493Z,95577.44
2023-03-19T23:08:40.989Z,95587.50
2023-03-19T23:11:07.421Z,95578.53
2023-03-19T23:13:34.768Z,95579.13
2023-03-19T23:16:02.057Z,95581.38
2023-03-19T23:18:36.262Z,95578.19
2023-03-19T23:21:03.700Z,95585.34
2023-03-19T23:23:30.762Z,95582.16
2023-03-19T23:25:57.597Z,95580.56
2023-03-19T23:28:32.949Z,95581.50
2023-03-19T23:31:01.437Z,95588.06
2023-03-19T23:33:28.571Z,95580.22
2023-03-19T23:35:55.054Z,95577.34
2023-03-19T23:38:22.307Z,95584.66
2023-03-19T23:40:51.344Z,95589.94
2023-03-19T23:43:25.343Z,95577.31
2023-03-19T23:45:53.141Z,95580.00
2023-03-19T23:48:22.863Z,95585.75
2023-03-19T23:50:49.359Z,95586.38
2023-03-19T23:53:21.246Z,95587.84
2023-03-19T23:55:53.422Z,95591.97
2023-03-19T23:58:21.054Z,95589.25
